sensor_id;sensor_type;location;lat;lon;timestamp;P1;durP1;ratioP1;P2;durP2;ratioP2
18983;SDS011;9626;52.552;13.436;2023-04-19T00:00:52;5.90;;;3.50;;
18983;SDS011;9626;52.552;13.436;2023-04-19T00:03:18;5.63;;;3.50;;
18983;SDS011;9626;52.552;13.436;2023-04-19T00:05:44;6.50;;;3.73;;
18983;SDS011;9626;52.552;13.436;2023-04-19T00:08:11;5.23;;;3.23;;
18983;SDS011;9626;52.552;13.436;2023-04-19T00:10:37;7.83;;;3.40;;
18983;SDS011;9626;52.552;13.436;2023-04-19T00:13:04;4.23;;;3.47;;
18983;SDS011;9626;52.552;13.436;2023-04-19T00:15:30;6.83;;;3.63;;
18983;SDS011;9626;52.552;13.436;2023-04-19T00:17:56;6.57;;;3.30;;
18983;SDS011;9626;52.552;13.436;2023-04-19T00:20:22;7.30;;;2.97;;
18983;SDS011;9626;52.552;13.436;2023-04-19T00:22:49;6.90;;;3.23;;
18983;SDS011;9626;52.552;13.436;2023-04-19T00:25:15;5.37;;;3.20;;
18983;SDS011;9626;52.552;13.436;2023-04-19T00:27:41;6.70;;;2.90;;
18983;SDS011;9626;52.552;13.436;2023-04-19T00:30:07;5.73;;;3.50;;
18983;SDS011;9626;52.552;13.436;2023-04-19T00:32:33;4.40;;;2.90;;
18983;SDS011;9626;52.552;13.436;2023-04-19T00:35:00;6.13;;;3.27;;
18983;SDS011;9626;52.552;13.436;2023-04-19T00:37:26;4.17;;;2.93;;
18983;SDS011;9626;52.552;13.436;2023-04-19T00:39:52;4.43;;;3.07;;
18983;SDS011;9626;52.552;13.436;2023-04-19T00:42:18;5.77;;;3.60;;
18983;SDS011;9626;52.552;13.436;2023-04-19T00:44:44;5.47;;;2.73;;
18983;SDS011;9626;52.552;13.436;2023-04-19T00:47:10;4.33;;;2.80;;
18983;SDS011;9626;52.552;13.436;2023-04-19T00:49:36;3.77;;;2.97;;
18983;SDS011;9626;52.552;13.436;2023-04-19T00:52:02;6.60;;;3.03;;
18983;SDS011;9626;52.552;13.436;2023-04-19T00:54:29;8.93;;;3.87;;
18983;SDS011;9626;52.552;13.436;2023-04-19T00:56:55;4.57;;;3.13;;
18983;SDS011;9626;52.552;13.436;2023-04-19T00:59:21;5.83;;;3.93;;
18983;SDS011;9626;52.552;13.436;2023-04-19T01:01:49;7.13;;;3.33;;
18983;SDS011;9626;52.552;13.436;2023-04-19T01:04:15;5.53;;;2.83;;
18983;SDS011;9626;52.552;13.436;2023-04-19T01:06:42;4.80;;;3.30;;
18983;SDS011;9626;52.552;13.436;2023-04-19T01:09:08;6.07;;;3.40;;
18983;SDS011;9626;52.552;13.436;2023-04-19T01:11:35;5.37;;;2.83;;
18983;SDS011;9626;52.552;13.436;2023-04-19T01:14:01;4.70;;;2.80;;
18983;SDS011;9626;52.552;13.436;2023-04-19T01:16:27;5.13;;;2.77;;
18983;SDS011;9626;52.552;13.436;2023-04-19T01:18:53;4.53;;;3.13;;
18983;SDS011;9626;52.552;13.436;2023-04-19T01:21:20;5.37;;;2.80;;
18983;SDS011;9626;52.552;13.436;2023-04-19T01:23:47;4.10;;;2.60;;
18983;SDS011;9626;52.552;13.436;2023-04-19T01:26:13;7.47;;;3.00;;
18983;SDS011;9626;52.552;13.436;2023-04-19T01:28:39;7.00;;;3.03;;
18983;SDS011;9626;52.552;13.436;2023-04-19T01:31:05;3.93;;;3.07;;
18983;SDS011;9626;52.552;13.436;2023-04-19T01:33:31;4.23;;;2.93;;
18983;SDS011;9626;52.552;13.436;2023-04-19T01:35:57;6.93;;;2.83;;
18983;SDS011;9626;52.552;13.436;2023-04-19T01:38:23;6.83;;;3.00;;
18983;SDS011;9626;52.552;13.436;2023-04-19T01:40:49;5.97;;;2.80;;
18983;SDS011;9626;52.552;13.436;2023-04-19T01:43:16;4.10;;;3.00;;
18983;SDS011;9626;52.552;13.436;2023-04-19T01:45:43;5.60;;;2.90;;
18983;SDS011;9626;52.552;13.436;2023-04-19T01:48:10;5.63;;;2.80;;
18983;SDS011;9626;52.552;13.436;2023-04-19T01:50:36;4.77;;;3.07;;
18983;SDS011;9626;52.552;13.436;2023-04-19T01:53:02;7.87;;;3.77;;
18983;SDS011;9626;52.552;13.436;2023-04-19T01:55:28;5.67;;;3.13;;
18983;SDS011;9626;52.552;13.436;2023-04-19T01:57:55;4.47;;;2.60;;
18983;SDS011;9626;52.552;13.436;2023-04-19T02:00:21;7.30;;;3.50;;
18983;SDS011;9626;52.552;13.436;2023-04-19T02:02:47;8.07;;;3.13;;
18983;SDS011;9626;52.552;13.436;2023-04-19T02:05:14;5.77;;;3.20;;
18983;SDS011;9626;52.552;13.436;2023-04-19T02:07:40;4.30;;;3.07;;
18983;SDS011;9626;52.552;13.436;2023-04-19T02:10:10;4.93;;;3.00;;
18983;SDS011;9626;52.552;13.436;2023-04-19T02:12:37;5.17;;;2.77;;
18983;SDS011;9626;52.552;13.436;2023-04-19T02:15:03;6.17;;;2.83;;
18983;SDS011;9626;52.552;13.436;2023-04-19T02:17:29;3.77;;;2.60;;
18983;SDS011;9626;52.552;13.436;2023-04-19T02:19:56;6.57;;;3.00;;
18983;SDS011;9626;52.552;13.436;2023-04-19T02:22:22;4.00;;;2.87;;
18983;SDS011;9626;52.552;13.436;2023-04-19T02:24:51;4.03;;;2.60;;
18983;SDS011;9626;52.552;13.436;2023-04-19T02:27:17;5.50;;;2.57;;
18983;SDS011;9626;52.552;13.436;2023-04-19T02:29:43;3.53;;;2.63;;
18983;SDS011;9626;52.552;13.436;2023-04-19T02:32:12;7.97;;;3.57;;
18983;SDS011;9626;52.552;13.436;2023-04-19T02:34:39;4.27;;;2.70;;
18983;SDS011;9626;52.552;13.436;2023-04-19T02:37:05;3.30;;;2.40;;
18983;SDS011;9626;52.552;13.436;2023-04-19T02:39:31;4.40;;;2.80;;
18983;SDS011;9626;52.552;13.436;2023-04-19T02:41:58;4.13;;;2.67;;
18983;SDS011;9626;52.552;13.436;2023-04-19T02:44:25;3.30;;;2.30;;
18983;SDS011;9626;52.552;13.436;2023-04-19T02:46:52;6.90;;;2.93;;
18983;SDS011;9626;52.552;13.436;2023-04-19T02:49:19;5.20;;;2.50;;
18983;SDS011;9626;52.552;13.436;2023-04-19T02:51:45;3.23;;;2.47;;
18983;SDS011;9626;52.552;13.436;2023-04-19T02:54:12;3.73;;;2.17;;
18983;SDS011;9626;52.552;13.436;2023-04-19T02:56:38;5.20;;;2.83;;
18983;SDS011;9626;52.552;13.436;2023-04-19T02:59:05;4.33;;;2.40;;
18983;SDS011;9626;52.552;13.436;2023-04-19T03:01:31;4.63;;;2.40;;
18983;SDS011;9626;52.552;13.436;2023-04-19T03:03:57;5.37;;;2.73;;
18983;SDS011;9626;52.552;13.436;2023-04-19T03:06:23;6.20;;;2.40;;
18983;SDS011;9626;52.552;13.436;2023-04-19T03:08:50;7.90;;;2.70;;
18983;SDS011;9626;52.552;13.436;2023-04-19T03:11:16;5.23;;;2.73;;
18983;SDS011;9626;52.552;13.436;2023-04-19T03:13:43;4.97;;;2.10;;
18983;SDS011;9626;52.552;13.436;2023-04-19T03:16:09;3.90;;;2.00;;
18983;SDS011;9626;52.552;13.436;2023-04-19T03:18:35;2.83;;;2.10;;
18983;SDS011;9626;52.552;13.436;2023-04-19T03:21:01;4.63;;;2.17;;
18983;SDS011;9626;52.552;13.436;2023-04-19T03:23:28;4.47;;;2.50;;
18983;SDS011;9626;52.552;13.436;2023-04-19T03:25:55;3.67;;;2.07;;
18983;SDS011;9626;52.552;13.436;2023-04-19T03:28:21;4.17;;;2.30;;
18983;SDS011;9626;52.552;13.436;2023-04-19T03:30:47;3.67;;;2.20;;
18983;SDS011;9626;52.552;13.436;2023-04-19T03:33:13;3.97;;;2.10;;
18983;SDS011;9626;52.552;13.436;2023-04-19T03:35:39;4.47;;;2.37;;
18983;SDS011;9626;52.552;13.436;2023-04-19T03:38:05;4.30;;;2.37;;
18983;SDS011;9626;52.552;13.436;2023-04-19T03:40:32;5.43;;;2.30;;
18983;SDS011;9626;52.552;13.436;2023-04-19T03:42:58;5.40;;;2.10;;
18983;SDS011;9626;52.552;13.436;2023-04-19T03:45:24;3.67;;;2.30;;
18983;SDS011;9626;52.552;13.436;2023-04-19T03:47:51;5.07;;;3.17;;
18983;SDS011;9626;52.552;13.436;2023-04-19T03:50:17;5.97;;;2.50;;
18983;SDS011;9626;52.552;13.436;2023-04-19T03:52:43;4.60;;;2.00;;
18983;SDS011;9626;52.552;13.436;2023-04-19T03:55:10;5.23;;;2.23;;
18983;SDS011;9626;52.552;13.436;2023-04-19T03:57:37;3.73;;;2.33;;
18983;SDS011;9626;52.552;13.436;2023-04-19T04:00:03;3.70;;;2.10;;
18983;SDS011;9626;52.552;13.436;2023-04-19T04:02:36;3.83;;;2.00;;
18983;SDS011;9626;52.552;13.436;2023-04-19T04:05:03;6.77;;;2.20;;
18983;SDS011;9626;52.552;13.436;2023-04-19T04:07:30;7.13;;;2.37;;
18983;SDS011;9626;52.552;13.436;2023-04-19T04:09:56;4.70;;;2.23;;
18983;SDS011;9626;52.552;13.436;2023-04-19T04:12:23;3.33;;;2.17;;
18983;SDS011;9626;52.552;13.436;2023-04-19T04:14:51;4.43;;;2.20;;
18983;SDS011;9626;52.552;13.436;2023-04-19T04:17:17;4.37;;;2.13;;
18983;SDS011;9626;52.552;13.436;2023-04-19T04:19:43;5.77;;;2.50;;
18983;SDS011;9626;52.552;13.436;2023-04-19T04:22:09;4.13;;;2.20;;
18983;SDS011;9626;52.552;13.436;2023-04-19T04:24:38;5.23;;;2.30;;
18983;SDS011;9626;52.552;13.436;2023-04-19T04:27:09;4.93;;;2.93;;
18983;SDS011;9626;52.552;13.436;2023-04-19T04:29:35;7.37;;;2.67;;
18983;SDS011;9626;52.552;13.436;2023-04-19T04:32:03;5.27;;;2.50;;
18983;SDS011;9626;52.552;13.436;2023-04-19T04:34:30;3.23;;;2.37;;
18983;SDS011;9626;52.552;13.436;2023-04-19T04:36:57;4.17;;;2.50;;
18983;SDS011;9626;52.552;13.436;2023-04-19T04:39:23;6.27;;;2.13;;
18983;SDS011;9626;52.552;13.436;2023-04-19T04:41:49;5.07;;;2.20;;
18983;SDS011;9626;52.552;13.436;2023-04-19T04:44:16;4.37;;;2.40;;
18983;SDS011;9626;52.552;13.436;2023-04-19T04:46:42;5.40;;;2.83;;
18983;SDS011;9626;52.552;13.436;2023-04-19T04:49:08;9.37;;;2.60;;
18983;SDS011;9626;52.552;13.436;2023-04-19T04:51:35;5.17;;;2.63;;
18983;SDS011;9626;52.552;13.436;2023-04-19T04:54:02;4.20;;;2.47;;
18983;SDS011;9626;52.552;13.436;2023-04-19T04:56:29;6.47;;;3.20;;
18983;SDS011;9626;52.552;13.436;2023-04-19T04:58:55;8.77;;;3.20;;
18983;SDS011;9626;52.552;13.436;2023-04-19T05:01:22;6.17;;;2.53;;
18983;SDS011;9626;52.552;13.436;2023-04-19T05:03:49;4.30;;;2.37;;
18983;SDS011;9626;52.552;13.436;2023-04-19T05:06:15;4.60;;;2.67;;
18983;SDS011;9626;52.552;13.436;2023-04-19T05:08:42;3.43;;;2.20;;
18983;SDS011;9626;52.552;13.436;2023-04-19T05:11:09;5.27;;;2.83;;
18983;SDS011;9626;52.552;13.436;2023-04-19T05:13:35;5.90;;;2.30;;
18983;SDS011;9626;52.552;13.436;2023-04-19T05:16:01;4.73;;;2.13;;
18983;SDS011;9626;52.552;13.436;2023-04-19T05:18:27;5.10;;;2.30;;
18983;SDS011;9626;52.552;13.436;2023-04-19T05:20:53;4.97;;;2.70;;
18983;SDS011;9626;52.552;13.436;2023-04-19T05:23:19;7.50;;;2.33;;
18983;SDS011;9626;52.552;13.436;2023-04-19T05:25:45;6.33;;;2.70;;
18983;SDS011;9626;52.552;13.436;2023-04-19T05:28:12;14.50;;;3.00;;
18983;SDS011;9626;52.552;13.436;2023-04-19T05:30:38;10.87;;;3.23;;
18983;SDS011;9626;52.552;13.436;2023-04-19T05:33:05;4.90;;;2.43;;
18983;SDS011;9626;52.552;13.436;2023-04-19T05:35:32;4.07;;;2.50;;
18983;SDS011;9626;52.552;13.436;2023-04-19T05:37:58;5.00;;;2.23;;
18983;SDS011;9626;52.552;13.436;2023-04-19T05:40:24;4.97;;;2.77;;
18983;SDS011;9626;52.552;13.436;2023-04-19T05:42:50;3.73;;;2.20;;
18983;SDS011;9626;52.552;13.436;2023-04-19T05:45:16;4.03;;;2.30;;
18983;SDS011;9626;52.552;13.436;2023-04-19T05:47:46;5.43;;;2.33;;
18983;SDS011;9626;52.552;13.436;2023-04-19T05:50:12;5.17;;;2.40;;
18983;SDS011;9626;52.552;13.436;2023-04-19T05:52:42;6.57;;;2.20;;
18983;SDS011;9626;52.552;13.436;2023-04-19T05:55:09;2.60;;;2.00;;
18983;SDS011;9626;52.552;13.436;2023-04-19T05:57:35;4.23;;;2.20;;
18983;SDS011;9626;52.552;13.436;2023-04-19T06:00:02;5.27;;;2.17;;
18983;SDS011;9626;52.552;13.436;2023-04-19T06:02:29;11.27;;;2.73;;
18983;SDS011;9626;52.552;13.436;2023-04-19T06:04:55;7.03;;;2.33;;
18983;SDS011;9626;52.552;13.436;2023-04-19T06:07:22;5.23;;;2.40;;
18983;SDS011;9626;52.552;13.436;2023-04-19T06:09:48;6.30;;;2.47;;
18983;SDS011;9626;52.552;13.436;2023-04-19T06:12:16;10.87;;;2.60;;
18983;SDS011;9626;52.552;13.436;2023-04-19T06:14:42;8.37;;;2.27;;
18983;SDS011;9626;52.552;13.436;2023-04-19T06:17:08;5.03;;;2.03;;
18983;SDS011;9626;52.552;13.436;2023-04-19T06:19:34;7.83;;;2.20;;
18983;SDS011;9626;52.552;13.436;2023-04-19T06:22:01;6.80;;;1.73;;
18983;SDS011;9626;52.552;13.436;2023-04-19T06:24:27;6.53;;;2.30;;
18983;SDS011;9626;52.552;13.436;2023-04-19T06:26:53;5.27;;;2.30;;
18983;SDS011;9626;52.552;13.436;2023-04-19T06:29:19;6.03;;;2.60;;
18983;SDS011;9626;52.552;13.436;2023-04-19T06:31:46;4.20;;;2.00;;
18983;SDS011;9626;52.552;13.436;2023-04-19T06:34:12;9.67;;;2.50;;
18983;SDS011;9626;52.552;13.436;2023-04-19T06:36:38;3.53;;;1.93;;
18983;SDS011;9626;52.552;13.436;2023-04-19T06:39:04;5.60;;;2.13;;
18983;SDS011;9626;52.552;13.436;2023-04-19T06:41:30;4.03;;;1.90;;
18983;SDS011;9626;52.552;13.436;2023-04-19T06:43:56;4.93;;;2.03;;
18983;SDS011;9626;52.552;13.436;2023-04-19T06:46:22;5.40;;;2.40;;
18983;SDS011;9626;52.552;13.436;2023-04-19T06:48:48;2.77;;;1.80;;
18983;SDS011;9626;52.552;13.436;2023-04-19T06:51:14;6.43;;;3.00;;
18983;SDS011;9626;52.552;13.436;2023-04-19T06:53:41;8.27;;;2.80;;
18983;SDS011;9626;52.552;13.436;2023-04-19T06:56:09;4.77;;;1.87;;
18983;SDS011;9626;52.552;13.436;2023-04-19T06:58:35;5.60;;;1.83;;
18983;SDS011;9626;52.552;13.436;2023-04-19T07:01:02;6.00;;;2.00;;
18983;SDS011;9626;52.552;13.436;2023-04-19T07:03:29;7.23;;;2.27;;
18983;SDS011;9626;52.552;13.436;2023-04-19T07:05:54;8.00;;;2.07;;
18983;SDS011;9626;52.552;13.436;2023-04-19T07:08:22;6.10;;;1.83;;
18983;SDS011;9626;52.552;13.436;2023-04-19T07:10:49;3.80;;;1.70;;
18983;SDS011;9626;52.552;13.436;2023-04-19T07:13:15;5.27;;;1.70;;
18983;SDS011;9626;52.552;13.436;2023-04-19T07:15:41;7.70;;;2.67;;
18983;SDS011;9626;52.552;13.436;2023-04-19T07:18:07;3.30;;;1.80;;
18983;SDS011;9626;52.552;13.436;2023-04-19T07:20:35;5.53;;;2.17;;
18983;SDS011;9626;52.552;13.436;2023-04-19T07:23:01;6.23;;;2.13;;
18983;SDS011;9626;52.552;13.436;2023-04-19T07:25:27;5.53;;;2.03;;
18983;SDS011;9626;52.552;13.436;2023-04-19T07:27:53;3.87;;;1.97;;
18983;SDS011;9626;52.552;13.436;2023-04-19T07:30:20;10.33;;;1.97;;
18983;SDS011;9626;52.552;13.436;2023-04-19T07:32:46;6.33;;;1.83;;
18983;SDS011;9626;52.552;13.436;2023-04-19T07:35:12;6.00;;;1.93;;
18983;SDS011;9626;52.552;13.436;2023-04-19T07:37:38;5.73;;;2.20;;
18983;SDS011;9626;52.552;13.436;2023-04-19T07:40:05;3.73;;;1.63;;
18983;SDS011;9626;52.552;13.436;2023-04-19T07:42:31;5.30;;;2.23;;
18983;SDS011;9626;52.552;13.436;2023-04-19T07:44:57;6.13;;;2.47;;
18983;SDS011;9626;52.552;13.436;2023-04-19T07:47:24;9.13;;;2.73;;
18983;SDS011;9626;52.552;13.436;2023-04-19T07:49:51;6.10;;;2.23;;
18983;SDS011;9626;52.552;13.436;2023-04-19T07:52:17;3.40;;;1.70;;
18983;SDS011;9626;52.552;13.436;2023-04-19T07:54:43;10.07;;;2.33;;
18983;SDS011;9626;52.552;13.436;2023-04-19T07:57:09;6.77;;;2.37;;
18983;SDS011;9626;52.552;13.436;2023-04-19T07:59:36;5.13;;;2.10;;
18983;SDS011;9626;52.552;13.436;2023-04-19T08:02:02;5.90;;;2.07;;
18983;SDS011;9626;52.552;13.436;2023-04-19T08:04:28;4.80;;;2.03;;
18983;SDS011;9626;52.552;13.436;2023-04-19T08:06:54;5.87;;;2.40;;
18983;SDS011;9626;52.552;13.436;2023-04-19T08:09:20;3.47;;;1.90;;
18983;SDS011;9626;52.552;13.436;2023-04-19T08:11:46;5.00;;;2.30;;
18983;SDS011;9626;52.552;13.436;2023-04-19T08:14:12;8.37;;;2.10;;
18983;SDS011;9626;52.552;13.436;2023-04-19T08:16:38;7.47;;;2.37;;
18983;SDS011;9626;52.552;13.436;2023-04-19T08:19:04;3.87;;;1.97;;
18983;SDS011;9626;52.552;13.436;2023-04-19T08:21:30;3.30;;;2.30;;
18983;SDS011;9626;52.552;13.436;2023-04-19T08:23:56;7.37;;;2.87;;
18983;SDS011;9626;52.552;13.436;2023-04-19T08:26:22;8.20;;;2.73;;
18983;SDS011;9626;52.552;13.436;2023-04-19T08:28:48;4.50;;;2.10;;
18983;SDS011;9626;52.552;13.436;2023-04-19T08:31:16;8.10;;;2.13;;
18983;SDS011;9626;52.552;13.436;2023-04-19T08:33:45;11.53;;;2.93;;
18983;SDS011;9626;52.552;13.436;2023-04-19T08:36:12;7.60;;;2.30;;
18983;SDS011;9626;52.552;13.436;2023-04-19T08:38:38;4.03;;;2.50;;
18983;SDS011;9626;52.552;13.436;2023-04-19T08:41:04;4.43;;;2.43;;
18983;SDS011;9626;52.552;13.436;2023-04-19T08:43:30;7.57;;;2.87;;
18983;SDS011;9626;52.552;13.436;2023-04-19T08:46:01;6.40;;;2.47;;
18983;SDS011;9626;52.552;13.436;2023-04-19T08:48:28;9.60;;;2.70;;
18983;SDS011;9626;52.552;13.436;2023-04-19T08:50:55;5.87;;;2.60;;
18983;SDS011;9626;52.552;13.436;2023-04-19T08:53:23;5.67;;;2.73;;
18983;SDS011;9626;52.552;13.436;2023-04-19T08:55:53;5.93;;;2.77;;
18983;SDS011;9626;52.552;13.436;2023-04-19T08:58:24;4.77;;;2.60;;
18983;SDS011;9626;52.552;13.436;2023-04-19T09:00:50;6.73;;;2.67;;
18983;SDS011;9626;52.552;13.436;2023-04-19T09:03:17;12.27;;;3.17;;
18983;SDS011;9626;52.552;13.436;2023-04-19T09:05:42;7.33;;;2.80;;
18983;SDS011;9626;52.552;13.436;2023-04-19T09:08:20;9.10;;;3.10;;
18983;SDS011;9626;52.552;13.436;2023-04-19T09:10:56;5.10;;;2.60;;
18983;SDS011;9626;52.552;13.436;2023-04-19T09:13:24;8.13;;;3.63;;
18983;SDS011;9626;52.552;13.436;2023-04-19T09:15:50;6.20;;;2.60;;
18983;SDS011;9626;52.552;13.436;2023-04-19T09:18:18;9.23;;;2.50;;
18983;SDS011;9626;52.552;13.436;2023-04-19T09:20:45;9.00;;;2.90;;
18983;SDS011;9626;52.552;13.436;2023-04-19T09:23:15;7.97;;;2.63;;
18983;SDS011;9626;52.552;13.436;2023-04-19T09:26:04;5.53;;;2.47;;
18983;SDS011;9626;52.552;13.436;2023-04-19T09:28:31;6.27;;;3.10;;
18983;SDS011;9626;52.552;13.436;2023-04-19T09:30:57;5.43;;;2.63;;
18983;SDS011;9626;52.552;13.436;2023-04-19T09:33:38;5.27;;;2.90;;
18983;SDS011;9626;52.552;13.436;2023-04-19T09:36:05;6.23;;;2.70;;
18983;SDS011;9626;52.552;13.436;2023-04-19T09:38:47;3.50;;;2.50;;
18983;SDS011;9626;52.552;13.436;2023-04-19T09:41:15;5.20;;;2.70;;
18983;SDS011;9626;52.552;13.436;2023-04-19T09:43:44;4.67;;;2.67;;
18983;SDS011;9626;52.552;13.436;2023-04-19T09:51:43;6.07;;;2.47;;
18983;SDS011;9626;52.552;13.436;2023-04-19T09:54:14;4.63;;;2.60;;
18983;SDS011;9626;52.552;13.436;2023-04-19T09:56:43;9.07;;;2.53;;
18983;SDS011;9626;52.552;13.436;2023-04-19T09:59:09;5.03;;;2.43;;
18983;SDS011;9626;52.552;13.436;2023-04-19T10:01:42;5.37;;;2.40;;
18983;SDS011;9626;52.552;13.436;2023-04-19T10:04:15;6.00;;;2.50;;
18983;SDS011;9626;52.552;13.436;2023-04-19T10:06:48;4.37;;;2.13;;
18983;SDS011;9626;52.552;13.436;2023-04-19T10:09:19;3.47;;;2.67;;
18983;SDS011;9626;52.552;13.436;2023-04-19T10:11:50;5.17;;;2.53;;
18983;SDS011;9626;52.552;13.436;2023-04-19T10:14:22;3.83;;;2.77;;
18983;SDS011;9626;52.552;13.436;2023-04-19T10:16:49;5.10;;;2.50;;
18983;SDS011;9626;52.552;13.436;2023-04-19T10:19:16;5.03;;;2.30;;
18983;SDS011;9626;52.552;13.436;2023-04-19T10:21:45;6.40;;;2.63;;
18983;SDS011;9626;52.552;13.436;2023-04-19T10:24:14;6.40;;;2.33;;
18983;SDS011;9626;52.552;13.436;2023-04-19T10:30:15;5.33;;;2.70;;
18983;SDS011;9626;52.552;13.436;2023-04-19T10:32:19;5.67;;;3.07;;
18983;SDS011;9626;52.552;13.436;2023-04-19T10:34:46;7.13;;;2.73;;
18983;SDS011;9626;52.552;13.436;2023-04-19T10:37:15;7.87;;;2.83;;
18983;SDS011;9626;52.552;13.436;2023-04-19T10:39:44;6.47;;;2.70;;
18983;SDS011;9626;52.552;13.436;2023-04-19T10:42:10;7.30;;;2.70;;
18983;SDS011;9626;52.552;13.436;2023-04-19T10:44:37;7.20;;;2.83;;
18983;SDS011;9626;52.552;13.436;2023-04-19T10:47:06;6.00;;;2.90;;
18983;SDS011;9626;52.552;13.436;2023-04-19T10:49:45;5.83;;;3.10;;
18983;SDS011;9626;52.552;13.436;2023-04-19T10:52:27;3.50;;;2.30;;
18983;SDS011;9626;52.552;13.436;2023-04-19T10:54:54;5.23;;;2.73;;
18983;SDS011;9626;52.552;13.436;2023-04-19T10:57:21;8.13;;;2.50;;
18983;SDS011;9626;52.552;13.436;2023-04-19T11:02:47;6.07;;;3.40;;
18983;SDS011;9626;52.552;13.436;2023-04-19T11:05:13;7.03;;;2.87;;
18983;SDS011;9626;52.552;13.436;2023-04-19T11:07:39;5.40;;;2.33;;
18983;SDS011;9626;52.552;13.436;2023-04-19T11:10:06;8.73;;;2.83;;
18983;SDS011;9626;52.552;13.436;2023-04-19T11:12:33;4.90;;;3.03;;
18983;SDS011;9626;52.552;13.436;2023-04-19T11:14:59;6.67;;;2.90;;
18983;SDS011;9626;52.552;13.436;2023-04-19T11:17:29;6.97;;;2.70;;
18983;SDS011;9626;52.552;13.436;2023-04-19T11:19:58;5.57;;;2.67;;
18983;SDS011;9626;52.552;13.436;2023-04-19T11:22:34;6.77;;;2.73;;
18983;SDS011;9626;52.552;13.436;2023-04-19T11:25:14;5.60;;;3.13;;
18983;SDS011;9626;52.552;13.436;2023-04-19T11:27:44;5.20;;;2.60;;
18983;SDS011;9626;52.552;13.436;2023-04-19T11:30:13;6.57;;;3.50;;
18983;SDS011;9626;52.552;13.436;2023-04-19T11:32:51;10.37;;;2.87;;
18983;SDS011;9626;52.552;13.436;2023-04-19T11:35:20;6.10;;;2.87;;
18983;SDS011;9626;52.552;13.436;2023-04-19T11:37:50;5.57;;;3.40;;
18983;SDS011;9626;52.552;13.436;2023-04-19T11:40:17;7.00;;;2.80;;
18983;SDS011;9626;52.552;13.436;2023-04-19T11:42:45;7.90;;;2.50;;
18983;SDS011;9626;52.552;13.436;2023-04-19T11:45:12;6.67;;;2.90;;
18983;SDS011;9626;52.552;13.436;2023-04-19T11:47:56;10.23;;;2.70;;
18983;SDS011;9626;52.552;13.436;2023-04-19T11:50:44;5.90;;;2.77;;
18983;SDS011;9626;52.552;13.436;2023-04-19T11:53:16;6.73;;;2.70;;
18983;SDS011;9626;52.552;13.436;2023-04-19T12:00:54;7.77;;;2.73;;
18983;SDS011;9626;52.552;13.436;2023-04-19T12:03:21;8.50;;;3.00;;
18983;SDS011;9626;52.552;13.436;2023-04-19T12:05:52;10.47;;;3.30;;
18983;SDS011;9626;52.552;13.436;2023-04-19T12:08:28;4.53;;;2.67;;
18983;SDS011;9626;52.552;13.436;2023-04-19T12:10:56;6.30;;;2.83;;
18983;SDS011;9626;52.552;13.436;2023-04-19T12:13:24;4.07;;;2.43;;
18983;SDS011;9626;52.552;13.436;2023-04-19T12:15:50;6.17;;;2.80;;
18983;SDS011;9626;52.552;13.436;2023-04-19T12:18:17;4.90;;;3.00;;
18983;SDS011;9626;52.552;13.436;2023-04-19T12:20:44;6.70;;;2.80;;
18983;SDS011;9626;52.552;13.436;2023-04-19T12:23:12;10.60;;;3.70;;
18983;SDS011;9626;52.552;13.436;2023-04-19T12:25:38;6.60;;;3.70;;
18983;SDS011;9626;52.552;13.436;2023-04-19T12:28:05;8.43;;;3.10;;
18983;SDS011;9626;52.552;13.436;2023-04-19T12:30:32;8.13;;;3.47;;
18983;SDS011;9626;52.552;13.436;2023-04-19T12:32:59;10.20;;;3.73;;
18983;SDS011;9626;52.552;13.436;2023-04-19T12:35:25;9.80;;;3.97;;
18983;SDS011;9626;52.552;13.436;2023-04-19T12:37:52;7.17;;;2.97;;
18983;SDS011;9626;52.552;13.436;2023-04-19T12:40:19;6.77;;;2.80;;
18983;SDS011;9626;52.552;13.436;2023-04-19T12:42:46;7.97;;;3.30;;
18983;SDS011;9626;52.552;13.436;2023-04-19T12:45:12;8.47;;;3.47;;
18983;SDS011;9626;52.552;13.436;2023-04-19T12:47:39;7.77;;;3.60;;
18983;SDS011;9626;52.552;13.436;2023-04-19T12:50:06;7.87;;;3.73;;
18983;SDS011;9626;52.552;13.436;2023-04-19T12:52:32;9.43;;;3.70;;
18983;SDS011;9626;52.552;13.436;2023-04-19T12:54:59;7.77;;;3.70;;
18983;SDS011;9626;52.552;13.436;2023-04-19T12:57:25;7.77;;;3.43;;
18983;SDS011;9626;52.552;13.436;2023-04-19T12:59:51;5.53;;;3.50;;
18983;SDS011;9626;52.552;13.436;2023-04-19T13:02:17;5.73;;;3.10;;
18983;SDS011;9626;52.552;13.436;2023-04-19T13:04:43;4.97;;;2.90;;
18983;SDS011;9626;52.552;13.436;2023-04-19T13:07:09;5.93;;;3.37;;
18983;SDS011;9626;52.552;13.436;2023-04-19T13:09:37;6.00;;;3.20;;
18983;SDS011;9626;52.552;13.436;2023-04-19T13:12:06;8.27;;;3.50;;
18983;SDS011;9626;52.552;13.436;2023-04-19T13:14:32;6.60;;;3.97;;
18983;SDS011;9626;52.552;13.436;2023-04-19T13:16:58;5.87;;;3.80;;
18983;SDS011;9626;52.552;13.436;2023-04-19T13:19:25;9.30;;;3.40;;
18983;SDS011;9626;52.552;13.436;2023-04-19T13:21:51;8.03;;;3.57;;
18983;SDS011;9626;52.552;13.436;2023-04-19T13:24:17;7.20;;;3.53;;
18983;SDS011;9626;52.552;13.436;2023-04-19T13:26:43;7.27;;;3.50;;
18983;SDS011;9626;52.552;13.436;2023-04-19T13:29:12;6.87;;;3.00;;
18983;SDS011;9626;52.552;13.436;2023-04-19T13:31:38;6.60;;;3.57;;
18983;SDS011;9626;52.552;13.436;2023-04-19T13:34:04;8.83;;;3.50;;
18983;SDS011;9626;52.552;13.436;2023-04-19T13:36:30;10.17;;;4.10;;
18983;SDS011;9626;52.552;13.436;2023-04-19T13:38:56;7.43;;;3.47;;
18983;SDS011;9626;52.552;13.436;2023-04-19T13:41:22;6.80;;;2.87;;
18983;SDS011;9626;52.552;13.436;2023-04-19T13:43:48;6.37;;;2.60;;
18983;SDS011;9626;52.552;13.436;2023-04-19T13:46:15;5.90;;;2.80;;
18983;SDS011;9626;52.552;13.436;2023-04-19T13:48:41;5.00;;;2.93;;
18983;SDS011;9626;52.552;13.436;2023-04-19T13:51:07;8.50;;;3.33;;
18983;SDS011;9626;52.552;13.436;2023-04-19T13:53:33;8.97;;;3.47;;
18983;SDS011;9626;52.552;13.436;2023-04-19T13:55:59;5.50;;;3.47;;
18983;SDS011;9626;52.552;13.436;2023-04-19T13:58:27;8.77;;;3.80;;
18983;SDS011;9626;52.552;13.436;2023-04-19T14:00:53;10.50;;;4.03;;
18983;SDS011;9626;52.552;13.436;2023-04-19T14:03:20;9.17;;;3.40;;
18983;SDS011;9626;52.552;13.436;2023-04-19T14:05:47;5.97;;;3.20;;
18983;SDS011;9626;52.552;13.436;2023-04-19T14:08:13;4.60;;;2.93;;
18983;SDS011;9626;52.552;13.436;2023-04-19T14:10:39;7.97;;;3.80;;
18983;SDS011;9626;52.552;13.436;2023-04-19T14:13:05;5.50;;;3.03;;
18983;SDS011;9626;52.552;13.436;2023-04-19T14:15:31;5.13;;;3.20;;
18983;SDS011;9626;52.552;13.436;2023-04-19T14:17:59;7.90;;;3.67;;
18983;SDS011;9626;52.552;13.436;2023-04-19T14:20:25;9.20;;;3.90;;
18983;SDS011;9626;52.552;13.436;2023-04-19T14:22:51;7.37;;;3.17;;
18983;SDS011;9626;52.552;13.436;2023-04-19T14:25:19;9.07;;;3.80;;
18983;SDS011;9626;52.552;13.436;2023-04-19T14:27:45;9.10;;;3.80;;
18983;SDS011;9626;52.552;13.436;2023-04-19T14:30:12;6.57;;;3.50;;
18983;SDS011;9626;52.552;13.436;2023-04-19T14:32:39;5.90;;;3.50;;
18983;SDS011;9626;52.552;13.436;2023-04-19T14:35:05;8.63;;;4.27;;
18983;SDS011;9626;52.552;13.436;2023-04-19T14:37:33;10.80;;;4.40;;
18983;SDS011;9626;52.552;13.436;2023-04-19T14:39:59;12.47;;;5.30;;
18983;SDS011;9626;52.552;13.436;2023-04-19T14:42:25;16.40;;;6.03;;
18983;SDS011;9626;52.552;13.436;2023-04-19T14:44:51;11.73;;;4.47;;
18983;SDS011;9626;52.552;13.436;2023-04-19T14:47:17;8.93;;;4.20;;
18983;SDS011;9626;52.552;13.436;2023-04-19T14:49:44;9.27;;;4.40;;
18983;SDS011;9626;52.552;13.436;2023-04-19T14:52:10;11.87;;;4.70;;
18983;SDS011;9626;52.552;13.436;2023-04-19T14:54:36;7.47;;;4.00;;
18983;SDS011;9626;52.552;13.436;2023-04-19T14:57:02;10.27;;;4.17;;
18983;SDS011;9626;52.552;13.436;2023-04-19T14:59:28;8.07;;;4.83;;
18983;SDS011;9626;52.552;13.436;2023-04-19T15:01:55;10.07;;;4.53;;
18983;SDS011;9626;52.552;13.436;2023-04-19T15:04:21;12.40;;;5.47;;